sensor_id;sensor_type;location;lat;lon;timestamp;P1;durP1;ratioP1;P2;durP2;ratioP2
24635;SDS011;12772;49.794;10.024;2023-04-10T00:01:31;12.10;;;10.25;;
24635;SDS011;12772;49.794;10.024;2023-04-10T00:05:35;10.68;;;9.65;;
24635;SDS011;12772;49.794;10.024;2023-04-10T00:09:37;11.30;;;10.18;;
24635;SDS011;12772;49.794;10.024;2023-04-10T00:13:40;11.20;;;10.00;;
24635;SDS011;12772;49.794;10.024;2023-04-10T00:17:42;11.13;;;10.02;;
24635;SDS011;12772;49.794;10.024;2023-04-10T00:21:44;10.23;;;8.80;;
24635;SDS011;12772;49.794;10.024;2023-04-10T00:25:46;11.02;;;9.82;;
24635;SDS011;12772;49.794;10.024;2023-04-10T00:29:49;10.50;;;9.43;;
24635;SDS011;12772;49.794;10.024;2023-04-10T00:33:51;11.88;;;10.07;;
24635;SDS011;12772;49.794;10.024;2023-04-10T00:37:56;10.32;;;9.23;;
24635;SDS011;12772;49.794;10.024;2023-04-10T00:41:58;14.80;;;12.63;;
24635;SDS011;12772;49.794;10.024;2023-04-10T00:46:01;14.20;;;12.80;;
24635;SDS011;12772;49.794;10.024;2023-04-10T00:50:03;11.25;;;10.13;;
24635;SDS011;12772;49.794;10.024;2023-04-10T00:54:06;12.30;;;11.10;;
24635;SDS011;12772;49.794;10.024;2023-04-10T00:58:09;13.02;;;11.00;;
24635;SDS011;12772;49.794;10.024;2023-04-10T01:02:13;10.63;;;9.57;;
24635;SDS011;12772;49.794;10.024;2023-04-10T01:06:28;10.70;;;9.63;;
24635;SDS011;12772;49.794;10.024;2023-04-10T01:10:57;12.57;;;11.35;;
24635;SDS011;12772;49.794;10.024;2023-04-10T01:15:11;12.32;;;11.07;;
24635;SDS011;12772;49.794;10.024;2023-04-10T01:19:41;12.00;;;10.68;;
24635;SDS011;12772;49.794;10.024;2023-04-10T01:32:20;11.50;;;10.30;;
24635;SDS011;12772;49.794;10.024;2023-04-10T01:36:25;11.85;;;10.65;;
24635;SDS011;12772;49.794;10.024;2023-04-10T01:40:29;10.75;;;9.65;;
24635;SDS011;12772;49.794;10.024;2023-04-10T01:44:33;10.00;;;9.10;;
24635;SDS011;12772;49.794;10.024;2023-04-10T01:48:38;11.02;;;9.85;;
24635;SDS011;12772;49.794;10.024;2023-04-10T01:52:41;10.52;;;9.43;;
24635;SDS011;12772;49.794;10.024;2023-04-10T01:56:44;11.07;;;9.88;;
24635;SDS011;12772;49.794;10.024;2023-04-10T02:00:46;10.40;;;9.40;;
24635;SDS011;12772;49.794;10.024;2023-04-10T02:04:48;10.48;;;9.23;;
24635;SDS011;12772;49.794;10.024;2023-04-10T02:13:47;10.07;;;8.98;;
24635;SDS011;12772;49.794;10.024;2023-04-10T02:17:51;10.35;;;9.32;;
24635;SDS011;12772;49.794;10.024;2023-04-10T02:21:55;10.10;;;9.10;;
24635;SDS011;12772;49.794;10.024;2023-04-10T02:26:04;10.98;;;9.88;;
24635;SDS011;12772;49.794;10.024;2023-04-10T02:30:07;9.43;;;8.55;;
24635;SDS011;12772;49.794;10.024;2023-04-10T02:34:10;10.20;;;9.10;;
24635;SDS011;12772;49.794;10.024;2023-04-10T02:38:12;10.70;;;9.57;;
24635;SDS011;12772;49.794;10.024;2023-04-10T02:42:14;9.60;;;8.40;;
24635;SDS011;12772;49.794;10.024;2023-04-10T02:46:16;9.75;;;8.85;;
24635;SDS011;12772;49.794;10.024;2023-04-10T02:50:18;9.48;;;8.57;;
24635;SDS011;12772;49.794;10.024;2023-04-10T02:54:20;10.25;;;9.07;;
24635;SDS011;12772;49.794;10.024;2023-04-10T02:58:22;9.93;;;8.93;;
24635;SDS011;12772;49.794;10.024;2023-04-10T03:02:24;9.75;;;8.77;;
24635;SDS011;12772;49.794;10.024;2023-04-10T03:06:27;9.20;;;8.30;;
24635;SDS011;12772;49.794;10.024;2023-04-10T03:10:29;9.88;;;8.18;;
24635;SDS011;12772;49.794;10.024;2023-04-10T03:14:31;9.98;;;8.98;;
24635;SDS011;12772;49.794;10.024;2023-04-10T03:18:33;10.48;;;9.20;;
24635;SDS011;12772;49.794;10.024;2023-04-10T03:22:36;9.73;;;8.75;;
24635;SDS011;12772;49.794;10.024;2023-04-10T03:26:39;9.93;;;8.93;;
24635;SDS011;12772;49.794;10.024;2023-04-10T03:30:41;9.75;;;8.75;;
24635;SDS011;12772;49.794;10.024;2023-04-10T03:34:43;9.30;;;8.40;;
24635;SDS011;12772;49.794;10.024;2023-04-10T03:38:45;10.98;;;9.55;;
24635;SDS011;12772;49.794;10.024;2023-04-10T03:42:47;9.57;;;8.52;;
24635;SDS011;12772;49.794;10.024;2023-04-10T03:46:49;9.65;;;8.65;;
24635;SDS011;12772;49.794;10.024;2023-04-10T03:50:51;9.55;;;8.65;;
24635;SDS011;12772;49.794;10.024;2023-04-10T03:54:53;9.52;;;8.60;;
24635;SDS011;12772;49.794;10.024;2023-04-10T03:58:56;9.75;;;8.82;;
24635;SDS011;12772;49.794;10.024;2023-04-10T04:02:58;10.10;;;9.05;;
24635;SDS011;12772;49.794;10.024;2023-04-10T04:07:00;9.40;;;8.50;;
24635;SDS011;12772;49.794;10.024;2023-04-10T04:11:02;10.35;;;9.30;;
24635;SDS011;12772;49.794;10.024;2023-04-10T04:15:05;9.52;;;8.52;;
24635;SDS011;12772;49.794;10.024;2023-04-10T04:19:08;10.52;;;9.43;;
24635;SDS011;12772;49.794;10.024;2023-04-10T04:23:10;10.10;;;9.10;;
24635;SDS011;12772;49.794;10.024;2023-04-10T04:27:12;9.10;;;8.05;;
24635;SDS011;12772;49.794;10.024;2023-04-10T04:31:14;11.35;;;9.32;;
24635;SDS011;12772;49.794;10.024;2023-04-10T04:35:16;10.43;;;9.20;;
24635;SDS011;12772;49.794;10.024;2023-04-10T04:39:18;10.55;;;9.45;;
24635;SDS011;12772;49.794;10.024;2023-04-10T04:43:22;8.93;;;7.75;;
24635;SDS011;12772;49.794;10.024;2023-04-10T04:47:25;10.27;;;8.90;;
24635;SDS011;12772;49.794;10.024;2023-04-10T04:51:27;11.25;;;9.48;;
24635;SDS011;12772;49.794;10.024;2023-04-10T04:55:29;9.43;;;8.43;;
24635;SDS011;12772;49.794;10.024;2023-04-10T04:59:31;9.90;;;8.80;;
24635;SDS011;12772;49.794;10.024;2023-04-10T05:03:33;9.90;;;8.90;;
24635;SDS011;12772;49.794;10.024;2023-04-10T05:07:35;10.02;;;8.75;;
24635;SDS011;12772;49.794;10.024;2023-04-10T05:11:37;10.13;;;9.13;;
24635;SDS011;12772;49.794;10.024;2023-04-10T05:15:39;10.75;;;9.65;;
24635;SDS011;12772;49.794;10.024;2023-04-10T05:19:42;10.68;;;9.60;;
24635;SDS011;12772;49.794;10.024;2023-04-10T05:23:44;10.38;;;9.38;;
24635;SDS011;12772;49.794;10.024;2023-04-10T05:27:46;10.60;;;9.50;;
24635;SDS011;12772;49.794;10.024;2023-04-10T05:31:48;11.70;;;10.30;;
24635;SDS011;12772;49.794;10.024;2023-04-10T05:35:51;10.07;;;9.05;;
24635;SDS011;12772;49.794;10.024;2023-04-10T05:39:54;11.75;;;9.93;;
24635;SDS011;12772;49.794;10.024;2023-04-10T05:43:56;11.85;;;10.02;;
24635;SDS011;12772;49.794;10.024;2023-04-10T05:47:58;11.38;;;10.18;;
24635;SDS011;12772;49.794;10.024;2023-04-10T05:52:00;13.93;;;12.07;;
24635;SDS011;12772;49.794;10.024;2023-04-10T05:56:02;10.77;;;9.55;;
24635;SDS011;12772;49.794;10.024;2023-04-10T06:00:04;11.75;;;10.52;;
24635;SDS011;12772;49.794;10.024;2023-04-10T06:04:07;12.52;;;10.23;;
24635;SDS011;12772;49.794;10.024;2023-04-10T06:08:09;12.18;;;10.98;;
24635;SDS011;12772;49.794;10.024;2023-04-10T06:12:11;13.95;;;12.45;;
24635;SDS011;12772;49.794;10.024;2023-04-10T06:16:14;13.85;;;12.07;;
24635;SDS011;12772;49.794;10.024;2023-04-10T06:20:16;12.77;;;11.40;;
24635;SDS011;12772;49.794;10.024;2023-04-10T06:24:18;13.55;;;12.07;;
24635;SDS011;12772;49.794;10.024;2023-04-10T06:28:20;14.75;;;11.55;;
24635;SDS011;12772;49.794;10.024;2023-04-10T06:32:22;12.15;;;10.85;;
24635;SDS011;12772;49.794;10.024;2023-04-10T06:36:24;12.63;;;11.32;;
24635;SDS011;12772;49.794;10.024;2023-04-10T06:40:28;12.77;;;11.07;;
24635;SDS011;12772;49.794;10.024;2023-04-10T06:44:30;12.07;;;10.88;;
24635;SDS011;12772;49.794;10.024;2023-04-10T06:48:32;13.15;;;11.77;;
24635;SDS011;12772;49.794;10.024;2023-04-10T06:52:35;12.50;;;11.20;;
24635;SDS011;12772;49.794;10.024;2023-04-10T06:56:37;10.95;;;9.85;;
24635;SDS011;12772;49.794;10.024;2023-04-10T07:00:39;12.38;;;11.07;;
24635;SDS011;12772;49.794;10.024;2023-04-10T07:04:41;13.35;;;11.95;;
24635;SDS011;12772;49.794;10.024;2023-04-10T07:08:43;13.15;;;11.85;;
24635;SDS011;12772;49.794;10.024;2023-04-10T07:12:46;12.90;;;10.93;;
24635;SDS011;12772;49.794;10.024;2023-04-10T07:16:48;13.93;;;12.52;;
24635;SDS011;12772;49.794;10.024;2023-04-10T07:20:50;12.35;;;11.05;;
24635;SDS011;12772;49.794;10.024;2023-04-10T07:24:53;13.80;;;12.35;;
24635;SDS011;12772;49.794;10.024;2023-04-10T07:28:55;12.68;;;11.43;;
24635;SDS011;12772;49.794;10.024;2023-04-10T07:32:57;13.68;;;12.27;;
24635;SDS011;12772;49.794;10.024;2023-04-10T07:36:59;12.60;;;11.30;;
24635;SDS011;12772;49.794;10.024;2023-04-10T07:41:02;12.68;;;11.25;;
24635;SDS011;12772;49.794;10.024;2023-04-10T07:45:04;12.80;;;11.40;;
24635;SDS011;12772;49.794;10.024;2023-04-10T07:49:07;13.07;;;11.70;;
24635;SDS011;12772;49.794;10.024;2023-04-10T07:53:09;11.85;;;10.63;;
24635;SDS011;12772;49.794;10.024;2023-04-10T07:57:11;12.18;;;10.98;;
24635;SDS011;12772;49.794;10.024;2023-04-10T08:01:13;11.93;;;10.75;;
24635;SDS011;12772;49.794;10.024;2023-04-10T08:05:16;12.63;;;10.40;;
24635;SDS011;12772;49.794;10.024;2023-04-10T08:09:18;11.82;;;10.63;;
24635;SDS011;12772;49.794;10.024;2023-04-10T08:13:20;11.18;;;10.13;;
24635;SDS011;12772;49.794;10.024;2023-04-10T08:17:22;12.63;;;11.32;;
24635;SDS011;12772;49.794;10.024;2023-04-10T08:21:25;12.55;;;11.25;;
24635;SDS011;12772;49.794;10.024;2023-04-10T08:25:28;12.15;;;10.93;;
24635;SDS011;12772;49.794;10.024;2023-04-10T08:29:31;11.13;;;10.13;;
24635;SDS011;12772;49.794;10.024;2023-04-10T08:33:33;11.13;;;10.00;;
24635;SDS011;12772;49.794;10.024;2023-04-10T08:37:35;11.00;;;10.00;;
24635;SDS011;12772;49.794;10.024;2023-04-10T08:41:39;11.00;;;9.90;;
24635;SDS011;12772;49.794;10.024;2023-04-10T08:45:41;11.50;;;10.40;;
24635;SDS011;12772;49.794;10.024;2023-04-10T08:54:06;10.23;;;9.32;;
24635;SDS011;12772;49.794;10.024;2023-04-10T08:58:13;11.30;;;10.25;;
24635;SDS011;12772;49.794;10.024;2023-04-10T09:02:16;10.07;;;9.10;;
24635;SDS011;12772;49.794;10.024;2023-04-10T09:06:18;9.65;;;8.75;;
24635;SDS011;12772;49.794;10.024;2023-04-10T09:10:20;9.82;;;8.93;;
24635;SDS011;12772;49.794;10.024;2023-04-10T09:14:24;9.80;;;8.90;;
24635;SDS011;12772;49.794;10.024;2023-04-10T09:18:40;9.18;;;8.38;;
24635;SDS011;12772;49.794;10.024;2023-04-10T09:22:47;8.60;;;7.80;;
24635;SDS011;12772;49.794;10.024;2023-04-10T09:26:49;8.75;;;7.95;;
24635;SDS011;12772;49.794;10.024;2023-04-10T09:30:51;9.73;;;8.73;;
24635;SDS011;12772;49.794;10.024;2023-04-10T09:34:54;9.07;;;8.27;;
24635;SDS011;12772;49.794;10.024;2023-04-10T09:38:58;9.00;;;8.10;;
24635;SDS011;12772;49.794;10.024;2023-04-10T09:43:01;9.48;;;8.57;;
24635;SDS011;12772;49.794;10.024;2023-04-10T09:47:21;8.70;;;7.72;;
24635;SDS011;12772;49.794;10.024;2023-04-10T09:51:34;9.32;;;8.43;;
24635;SDS011;12772;49.794;10.024;2023-04-10T09:55:36;7.43;;;6.82;;
24635;SDS011;12772;49.794;10.024;2023-04-10T09:59:38;7.40;;;6.80;;
24635;SDS011;12772;49.794;10.024;2023-04-10T10:03:42;7.53;;;6.82;;
24635;SDS011;12772;49.794;10.024;2023-04-10T10:07:49;6.85;;;6.25;;
24635;SDS011;12772;49.794;10.024;2023-04-10T10:11:51;7.43;;;6.72;;
24635;SDS011;12772;49.794;10.024;2023-04-10T10:16:06;7.20;;;6.28;;
24635;SDS011;12772;49.794;10.024;2023-04-10T10:20:15;7.28;;;6.57;;
24635;SDS011;12772;49.794;10.024;2023-04-10T10:24:20;7.40;;;6.60;;
24635;SDS011;12772;49.794;10.024;2023-04-10T10:28:26;7.28;;;6.57;;
24635;SDS011;12772;49.794;10.024;2023-04-10T10:32:33;8.07;;;7.38;;
24635;SDS011;12772;49.794;10.024;2023-04-10T10:36:36;7.70;;;7.00;;
24635;SDS011;12772;49.794;10.024;2023-04-10T10:44:57;6.95;;;6.35;;
24635;SDS011;12772;49.794;10.024;2023-04-10T10:49:07;6.22;;;5.72;;
24635;SDS011;12772;49.794;10.024;2023-04-10T10:53:09;6.88;;;6.28;;
24635;SDS011;12772;49.794;10.024;2023-04-10T10:57:45;5.97;;;5.47;;
24635;SDS011;12772;49.794;10.024;2023-04-10T11:02:34;6.35;;;5.75;;
24635;SDS011;12772;49.794;10.024;2023-04-10T11:06:18;5.55;;;5.05;;
24635;SDS011;12772;49.794;10.024;2023-04-10T11:15:02;4.65;;;4.35;;
24635;SDS011;12772;49.794;10.024;2023-04-10T11:19:05;6.28;;;5.75;;
24635;SDS011;12772;49.794;10.024;2023-04-10T11:23:13;5.18;;;4.78;;
24635;SDS011;12772;49.794;10.024;2023-04-10T11:31:57;5.15;;;4.75;;
24635;SDS011;12772;49.794;10.024;2023-04-10T11:36:03;5.57;;;5.07;;
24635;SDS011;12772;49.794;10.024;2023-04-10T11:40:06;5.50;;;5.10;;
24635;SDS011;12772;49.794;10.024;2023-04-10T11:44:11;5.40;;;5.00;;
24635;SDS011;12772;49.794;10.024;2023-04-10T11:48:14;5.20;;;4.80;;
24635;SDS011;12772;49.794;10.024;2023-04-10T11:52:23;5.70;;;5.22;;
24635;SDS011;12772;49.794;10.024;2023-04-10T11:56:26;5.45;;;4.93;;
24635;SDS011;12772;49.794;10.024;2023-04-10T12:00:29;5.72;;;5.22;;
24635;SDS011;12772;49.794;10.024;2023-04-10T12:04:31;4.85;;;4.45;;
24635;SDS011;12772;49.794;10.024;2023-04-10T12:08:35;5.60;;;5.10;;
24635;SDS011;12772;49.794;10.024;2023-04-10T12:12:38;6.10;;;5.60;;
24635;SDS011;12772;49.794;10.024;2023-04-10T12:16:40;5.68;;;5.18;;
24635;SDS011;12772;49.794;10.024;2023-04-10T12:20:43;5.05;;;4.70;;
24635;SDS011;12772;49.794;10.024;2023-04-10T12:24:49;5.43;;;5.03;;
24635;SDS011;12772;49.794;10.024;2023-04-10T12:28:54;5.72;;;5.32;;
24635;SDS011;12772;49.794;10.024;2023-04-10T12:32:57;5.57;;;5.18;;
24635;SDS011;12772;49.794;10.024;2023-04-10T12:37:03;5.45;;;5.05;;
24635;SDS011;12772;49.794;10.024;2023-04-10T12:41:06;5.32;;;4.85;;
24635;SDS011;12772;49.794;10.024;2023-04-10T12:45:09;4.68;;;4.35;;
24635;SDS011;12772;49.794;10.024;2023-04-10T12:49:15;4.75;;;4.35;;
24635;SDS011;12772;49.794;10.024;2023-04-10T12:53:19;5.15;;;4.75;;
24635;SDS011;12772;49.794;10.024;2023-04-10T12:57:27;7.00;;;4.80;;
24635;SDS011;12772;49.794;10.024;2023-04-10T13:01:29;5.20;;;4.07;;
24635;SDS011;12772;49.794;10.024;2023-04-10T13:05:31;4.32;;;4.03;;
24635;SDS011;12772;49.794;10.024;2023-04-10T13:09:33;4.35;;;4.00;;
24635;SDS011;12772;49.794;10.024;2023-04-10T13:13:36;4.22;;;3.92;;
24635;SDS011;12772;49.794;10.024;2023-04-10T13:17:38;4.88;;;4.25;;
24635;SDS011;12772;49.794;10.024;2023-04-10T13:21:41;4.03;;;3.60;;
24635;SDS011;12772;49.794;10.024;2023-04-10T13:25:43;4.03;;;3.50;;
24635;SDS011;12772;49.794;10.024;2023-04-10T13:29:45;2.97;;;2.78;;
24635;SDS011;12772;49.794;10.024;2023-04-10T13:33:47;3.60;;;3.30;;
24635;SDS011;12772;49.794;10.024;2023-04-10T13:37:49;3.38;;;3.17;;
24635;SDS011;12772;49.794;10.024;2023-04-10T13:41:53;3.08;;;2.88;;
24635;SDS011;12772;49.794;10.024;2023-04-10T13:45:56;4.30;;;2.92;;
24635;SDS011;12772;49.794;10.024;2023-04-10T13:49:58;3.22;;;3.03;;
24635;SDS011;12772;49.794;10.024;2023-04-10T13:54:01;3.03;;;2.83;;
24635;SDS011;12772;49.794;10.024;2023-04-10T13:58:04;3.13;;;2.92;;
24635;SDS011;12772;49.794;10.024;2023-04-10T14:02:06;3.78;;;2.90;;
24635;SDS011;12772;49.794;10.024;2023-04-10T14:06:08;2.92;;;2.75;;
24635;SDS011;12772;49.794;10.024;2023-04-10T14:10:11;3.05;;;2.85;;
24635;SDS011;12772;49.794;10.024;2023-04-10T14:14:13;3.47;;;3.17;;
24635;SDS011;12772;49.794;10.024;2023-04-10T14:18:15;2.88;;;2.67;;
24635;SDS011;12772;49.794;10.024;2023-04-10T14:22:17;2.80;;;2.60;;
24635;SDS011;12772;49.794;10.024;2023-04-10T14:26:20;3.10;;;2.90;;
24635;SDS011;12772;49.794;10.024;2023-04-10T14:30:22;3.08;;;2.88;;
24635;SDS011;12772;49.794;10.024;2023-04-10T14:34:28;3.25;;;2.92;;
24635;SDS011;12772;49.794;10.024;2023-04-10T14:38:30;2.78;;;2.47;;
24635;SDS011;12772;49.794;10.024;2023-04-10T14:42:32;3.25;;;3.03;;
24635;SDS011;12772;49.794;10.024;2023-04-10T14:46:34;3.22;;;3.03;;
24635;SDS011;12772;49.794;10.024;2023-04-10T14:50:36;3.97;;;3.38;;
24635;SDS011;12772;49.794;10.024;2023-04-10T14:54:38;4.05;;;3.65;;
24635;SDS011;12772;49.794;10.024;2023-04-10T14:58:41;3.55;;;3.28;;
24635;SDS011;12772;49.794;10.024;2023-04-10T15:02:43;3.53;;;3.22;;
24635;SDS011;12772;49.794;10.024;2023-04-10T15:06:45;2.85;;;2.60;;
24635;SDS011;12772;49.794;10.024;2023-04-10T15:10:47;3.60;;;3.35;;
24635;SDS011;12772;49.794;10.024;2023-04-10T15:14:52;4.55;;;3.17;;
24635;SDS011;12772;49.794;10.024;2023-04-10T15:18:54;3.80;;;3.40;;
24635;SDS011;12772;49.794;10.024;2023-04-10T15:22:56;4.10;;;3.80;;
24635;SDS011;12772;49.794;10.024;2023-04-10T15:26:59;3.88;;;3.58;;
24635;SDS011;12772;49.794;10.024;2023-04-10T15:31:01;4.32;;;3.30;;
24635;SDS011;12772;49.794;10.024;2023-04-10T15:35:04;4.22;;;3.38;;
24635;SDS011;12772;49.794;10.024;2023-04-10T15:39:06;3.30;;;3.00;;
24635;SDS011;12772;49.794;10.024;2023-04-10T15:43:08;3.05;;;2.72;;
24635;SDS011;12772;49.794;10.024;2023-04-10T15:47:10;3.45;;;3.15;;
24635;SDS011;12772;49.794;10.024;2023-04-10T15:51:12;3.70;;;3.00;;
24635;SDS011;12772;49.794;10.024;2023-04-10T15:55:14;5.35;;;3.40;;
24635;SDS011;12772;49.794;10.024;2023-04-10T15:59:17;10.43;;;8.68;;
24635;SDS011;12772;49.794;10.024;2023-04-10T16:03:19;7.00;;;6.47;;
24635;SDS011;12772;49.794;10.024;2023-04-10T16:07:21;3.63;;;3.33;;
24635;SDS011;12772;49.794;10.024;2023-04-10T16:11:23;3.15;;;2.95;;
24635;SDS011;12772;49.794;10.024;2023-04-10T16:15:25;3.08;;;2.88;;
24635;SDS011;12772;49.794;10.024;2023-04-10T16:19:31;3.33;;;3.13;;
24635;SDS011;12772;49.794;10.024;2023-04-10T16:23:33;3.80;;;3.30;;
24635;SDS011;12772;49.794;10.024;2023-04-10T16:27:35;3.42;;;3.13;;
24635;SDS011;12772;49.794;10.024;2023-04-10T16:31:37;3.35;;;3.15;;
24635;SDS011;12772;49.794;10.024;2023-04-10T16:35:39;3.75;;;3.13;;
24635;SDS011;12772;49.794;10.024;2023-04-10T16:39:41;3.10;;;2.90;;
24635;SDS011;12772;49.794;10.024;2023-04-10T16:43:43;3.92;;;3.58;;
24635;SDS011;12772;49.794;10.024;2023-04-10T16:47:45;3.05;;;2.85;;
24635;SDS011;12772;49.794;10.024;2023-04-10T16:51:47;3.30;;;2.97;;
24635;SDS011;12772;49.794;10.024;2023-04-10T16:55:58;3.40;;;3.20;;
24635;SDS011;12772;49.794;10.024;2023-04-10T17:00:00;3.80;;;2.90;;
24635;SDS011;12772;49.794;10.024;2023-04-10T17:04:03;3.13;;;2.90;;
24635;SDS011;12772;49.794;10.024;2023-04-10T17:08:07;2.95;;;2.75;;
24635;SDS011;12772;49.794;10.024;2023-04-10T17:12:10;3.53;;;2.70;;
24635;SDS011;12772;49.794;10.024;2023-04-10T17:16:12;3.10;;;2.75;;
24635;SDS011;12772;49.794;10.024;2023-04-10T17:20:15;4.25;;;3.50;;
24635;SDS011;12772;49.794;10.024;2023-04-10T17:24:18;3.65;;;3.30;;
24635;SDS011;12772;49.794;10.024;2023-04-10T17:28:20;4.50;;;3.75;;
24635;SDS011;12772;49.794;10.024;2023-04-10T17:32:22;3.70;;;3.40;;
24635;SDS011;12772;49.794;10.024;2023-04-10T17:36:24;3.55;;;3.28;;
24635;SDS011;12772;49.794;10.024;2023-04-10T17:40:26;3.80;;;3.50;;
24635;SDS011;12772;49.794;10.024;2023-04-10T17:44:28;5.65;;;4.35;;
24635;SDS011;12772;49.794;10.024;2023-04-10T17:48:30;3.58;;;3.28;;
24635;SDS011;12772;49.794;10.024;2023-04-10T17:52:33;3.40;;;3.10;;
24635;SDS011;12772;49.794;10.024;2023-04-10T17:56:36;3.13;;;2.92;;
24635;SDS011;12772;49.794;10.024;2023-04-10T18:00:41;3.42;;;2.97;;
24635;SDS011;12772;49.794;10.024;2023-04-10T18:04:44;2.88;;;2.67;;
24635;SDS011;12772;49.794;10.024;2023-04-10T18:08:46;3.13;;;2.83;;
24635;SDS011;12772;49.794;10.024;2023-04-10T18:12:48;3.60;;;3.30;;
24635;SDS011;12772;49.794;10.024;2023-04-10T18:16:50;3.75;;;3.45;;
24635;SDS011;12772;49.794;10.024;2023-04-10T18:20:52;3.83;;;3.35;;
24635;SDS011;12772;49.794;10.024;2023-04-10T18:24:54;3.75;;;3.45;;
24635;SDS011;12772;49.794;10.024;2023-04-10T18:28:56;4.38;;;3.25;;
24635;SDS011;12772;49.794;10.024;2023-04-10T18:32:59;3.72;;;3.40;;
24635;SDS011;12772;49.794;10.024;2023-04-10T18:37:01;4.85;;;3.72;;
24635;SDS011;12772;49.794;10.024;2023-04-10T18:41:03;3.97;;;3.67;;
24635;SDS011;12772;49.794;10.024;2023-04-10T18:45:05;3.50;;;3.22;;
24635;SDS011;12772;49.794;10.024;2023-04-10T18:49:08;4.40;;;4.03;;
24635;SDS011;12772;49.794;10.024;2023-04-10T18:53:11;4.88;;;4.18;;
24635;SDS011;12772;49.794;10.024;2023-04-10T18:57:13;4.50;;;4.10;;
24635;SDS011;12772;49.794;10.024;2023-04-10T19:01:15;4.90;;;4.13;;
24635;SDS011;12772;49.794;10.024;2023-04-10T19:05:18;4.13;;;3.72;;
24635;SDS011;12772;49.794;10.024;2023-04-10T19:09:20;4.28;;;3.97;;
24635;SDS011;12772;49.794;10.024;2023-04-10T19:13:22;5.13;;;4.72;;
24635;SDS011;12772;49.794;10.024;2023-04-10T19:17:24;6.78;;;6.18;;
24635;SDS011;12772;49.794;10.024;2023-04-10T19:21:26;5.70;;;5.20;;
24635;SDS011;12772;49.794;10.024;2023-04-10T19:25:28;5.00;;;4.60;;
24635;SDS011;12772;49.794;10.024;2023-04-10T19:29:31;10.65;;;9.40;;
24635;SDS011;12772;49.794;10.024;2023-04-10T19:33:33;10.40;;;9.40;;
24635;SDS011;12772;49.794;10.024;2023-04-10T19:37:35;5.70;;;5.20;;
24635;SDS011;12772;49.794;10.024;2023-04-10T19:41:37;7.57;;;6.88;;
24635;SDS011;12772;49.794;10.024;2023-04-10T19:45:41;7.80;;;7.07;;
24635;SDS011;12772;49.794;10.024;2023-04-10T19:49:43;6.13;;;5.53;;
24635;SDS011;12772;49.794;10.024;2023-04-10T19:53:45;5.22;;;4.75;;
24635;SDS011;12772;49.794;10.024;2023-04-10T19:57:48;5.38;;;4.88;;
24635;SDS011;12772;49.794;10.024;2023-04-10T20:01:50;7.32;;;5.03;;
24635;SDS011;12772;49.794;10.024;2023-04-10T20:05:52;5.38;;;4.95;;
24635;SDS011;12772;49.794;10.024;2023-04-10T20:09:54;6.07;;;5.50;;
24635;SDS011;12772;49.794;10.024;2023-04-10T20:13:58;5.45;;;4.95;;
24635;SDS011;12772;49.794;10.024;2023-04-10T20:18:00;5.82;;;5.32;;
24635;SDS011;12772;49.794;10.024;2023-04-10T20:22:03;6.15;;;5.65;;
24635;SDS011;12772;49.794;10.024;2023-04-10T20:26:05;6.15;;;5.20;;
24635;SDS011;12772;49.794;10.024;2023-04-10T20:30:08;6.35;;;5.60;;
24635;SDS011;12772;49.794;10.024;2023-04-10T20:34:10;6.90;;;6.20;;
24635;SDS011;12772;49.794;10.024;2023-04-10T20:38:12;5.95;;;5.43;;
24635;SDS011;12772;49.794;10.024;2023-04-10T20:42:14;5.95;;;5.43;;
24635;SDS011;12772;49.794;10.024;2023-04-10T20:46:17;6.22;;;5.63;;
24635;SDS011;12772;49.794;10.024;2023-04-10T20:50:19;6.78;;;6.15;;
24635;SDS011;12772;49.794;10.024;2023-04-10T20:54:21;6.03;;;5.43;;
24635;SDS011;12772;49.794;10.024;2023-04-10T20:58:23;6.88;;;6.20;;
24635;SDS011;12772;49.794;10.024;2023-04-10T21:02:26;5.50;;;4.90;;
24635;SDS011;12772;49.794;10.024;2023-04-10T21:06:28;5.50;;;5.00;;
24635;SDS011;12772;49.794;10.024;2023-04-10T21:10:30;8.43;;;6.20;;
24635;SDS011;12772;49.794;10.024;2023-04-10T21:14:32;5.65;;;5.15;;
24635;SDS011;12772;49.794;10.024;2023-04-10T21:18:35;5.45;;;4.95;;
24635;SDS011;12772;49.794;10.024;2023-04-10T21:22:37;5.22;;;4.78;;
24635;SDS011;12772;49.794;10.024;2023-04-10T21:26:39;4.90;;;4.50;;
24635;SDS011;12772;49.794;10.024;2023-04-10T21:30:41;5.05;;;4.65;;
24635;SDS011;12772;49.794;10.024;2023-04-10T21:34:44;5.15;;;4.63;;
24635;SDS011;12772;49.794;10.024;2023-04-10T21:38:46;6.20;;;4.38;;
24635;SDS011;12772;49.794;10.024;2023-04-10T21:42:48;5.03;;;4.55;;
24635;SDS011;12772;49.794;10.024;2023-04-10T21:46:50;4.57;;;4.18;;
24635;SDS011;12772;49.794;10.024;2023-04-10T21:50:52;4.15;;;3.85;;
24635;SDS011;12772;49.794;10.024;2023-04-10T21:54:54;4.80;;;4.40;;
24635;SDS011;12772;49.794;10.024;2023-04-10T21:58:57;4.35;;;3.95;;
24635;SDS011;12772;49.794;10.024;2023-04-10T22:02:59;4.45;;;4.05;;
24635;SDS011;12772;49.794;10.024;2023-04-10T22:07:01;4.20;;;3.80;;
24635;SDS011;12772;49.794;10.024;2023-04-10T22:11:03;4.60;;;4.20;;
24635;SDS011;12772;49.794;10.024;2023-04-10T22:15:06;4.05;;;3.75;;
24635;SDS011;12772;49.794;10.024;2023-04-10T22:19:09;4.00;;;3.70;;
24635;SDS011;12772;49.794;10.024;2023-04-10T22:23:11;4.00;;;3.63;;
24635;SDS011;12772;49.794;10.024;2023-04-10T22:27:13;4.50;;;4.10;;
24635;SDS011;12772;49.794;10.024;2023-04-10T22:31:16;4.05;;;3.75;;
24635;SDS011;12772;49.794;10.024;2023-04-10T22:35:19;4.60;;;3.78;;
24635;SDS011;12772;49.794;10.024;2023-04-10T22:39:21;5.65;;;4.97;;
24635;SDS011;12772;49.794;10.024;2023-04-10T22:43:23;5.35;;;4.72;;
24635;SDS011;12772;49.794;10.024;2023-04-10T22:47:25;4.55;;;3.90;;
24635;SDS011;12772;49.794;10.024;2023-04-10T22:51:28;4.70;;;4.25;;
24635;SDS011;12772;49.794;10.024;2023-04-10T22:55:30;3.75;;;3.45;;
24635;SDS011;12772;49.794;10.024;2023-04-10T22:59:35;3.05;;;2.85;;
24635;SDS011;12772;49.794;10.024;2023-04-10T23:03:38;3.38;;;3.08;;
24635;SDS011;12772;49.794;10.024;2023-04-10T23:07:40;3.38;;;3.08;;
24635;SDS011;12772;49.794;10.024;2023-04-10T23:11:42;2.92;;;2.72;;
24635;SDS011;12772;49.794;10.024;2023-04-10T23:15:48;3.22;;;2.92;;
24635;SDS011;12772;49.794;10.024;2023-04-10T23:19:51;2.97;;;2.78;;
24635;SDS011;12772;49.794;10.024;2023-04-10T23:23:54;2.67;;;2.47;;
24635;SDS011;12772;49.794;10.024;2023-04-10T23:27:56;3.42;;;3.13;;
24635;SDS011;12772;49.794;10.024;2023-04-10T23:31:59;3.17;;;2.97;;
24635;SDS011;12772;49.794;10.024;2023-04-10T23:36:01;2.83;;;2.63;;
24635;SDS011;12772;49.794;10.024;2023-04-10T23:40:03;3.47;;;2.83;;
24635;SDS011;12772;49.794;10.024;2023-04-10T23:44:06;3.10;;;2.83;;
24635;SDS011;12772;49.794;10.024;2023-04-10T23:48:08;3.65;;;2.65;;
24635;SDS011;12772;49.794;10.024;2023-04-10T23:52:11;3.10;;;2.90;;
24635;SDS011;12772;49.794;10.024;2023-04-10T23:56:13;3.58;;;3.28;;
